This is the latest recevied weather packets stored in our database for station/object SV9TNF-2. If no packets are shown the sender has not sent any weather packets the latest 10 day(s).
| Time | Temp. | Humidity | Pressure | Rain* | Wind** | Luminosity | Snow |
|---|---|---|---|---|---|---|---|
| 1777466966 | 23.89° C | 51% | 1022.7 hPa | 0 mm | 1.79 m/s, 113° | - | - |
| 1777466666 | 23.33° C | 50% | 1022.7 hPa | 0 mm | 4.92 m/s, 3° | - | - |
| 1777466366 | 23.89° C | 48% | 1022.7 hPa | 0 mm | 1.79 m/s, 98° | - | - |
| 1777466065 | 23.33° C | 48% | 1022.7 hPa | 0 mm | 3.58 m/s, 334° | - | - |
| 1777465766 | 23.33° C | 47% | 1022.7 hPa | 0 mm | 1.79 m/s, 10° | - | - |
| 1777465465 | 23.89° C | 50% | 1022.7 hPa | 0 mm | 1.34 m/s, 104° | - | - |
| 1777465165 | 23.33° C | 52% | 1023 hPa | 0 mm | 1.79 m/s, 129° | - | - |
| 1777464865 | 22.22° C | 54% | 1023 hPa | 0 mm | 5.81 m/s, 19° | - | - |
| 1777464565 | 22.78° C | 54% | 1023 hPa | 0 mm | 6.71 m/s, 0° | - | - |
| 1777464265 | 23.33° C | 55% | 1023 hPa | 0 mm | 6.26 m/s, 283° | - | - |
| 1777463964 | 23.33° C | 52% | 1023 hPa | 0 mm | 4.02 m/s, 340° | - | - |
| 1777463664 | 23.33° C | 50% | 1023 hPa | 0 mm | 3.13 m/s, 311° | - | - |
| 1777463364 | 23.89° C | 51% | 1023 hPa | 0 mm | 3.13 m/s, 312° | - | - |
| 1777463064 | 24.44° C | 50% | 1022.7 hPa | 0 mm | 2.68 m/s, 12° | - | - |
| 1777462764 | 24.44° C | 48% | 1022.7 hPa | 0 mm | 1.79 m/s, 27° | - | - |
| 1777462464 | 23.33° C | 50% | 1023 hPa | 0 mm | 3.58 m/s, 6° | - | - |
| 1777462164 | 23.33° C | 53% | 1023 hPa | 0 mm | 1.79 m/s, 309° | - | - |
| 1777461864 | 22.78° C | 50% | 1023 hPa | 0 mm | 6.71 m/s, 11° | - | - |
| 1777461564 | 23.33° C | 51% | 1023 hPa | 0 mm | 4.02 m/s, 344° | - | - |
| 1777461264 | 22.78° C | 52% | 1023 hPa | 0 mm | 4.47 m/s, 65° | - | - |
| 1777460964 | 22.78° C | 50% | 1023 hPa | 0 mm | 8.49 m/s, 9° | - | - |
| 1777460663 | 22.22° C | 54% | 1023 hPa | 0 mm | 4.92 m/s, 358° | - | - |
| 1777460363 | 25° C | 47% | 1023 hPa | 0 mm | 2.24 m/s, 9° | - | - |
| 1777460063 | 24.44° C | 46% | 1023 hPa | 0 mm | 0.89 m/s, 252° | - | - |
| 1777459763 | 23.89° C | 47% | 1023 hPa | 0 mm | 4.47 m/s, 16° | - | - |
* Rain latest hour (hover to see other rain measurements)
** Current wind speed in m/s (hover to see current wind gust speed)